createdAt,value
2022-12-04T00:00:33.722Z,3.10
2022-12-04T00:03:00.613Z,3.10
2022-12-04T00:05:27.586Z,3.10
2022-12-04T00:07:54.560Z,3.10
2022-12-04T00:10:21.553Z,3.10
2022-12-04T00:12:48.411Z,3.20
2022-12-04T00:15:25.269Z,3.10
2022-12-04T00:17:53.447Z,3.10
2022-12-04T00:20:20.494Z,3.10
2022-12-04T00:22:47.384Z,3.10
2022-12-04T00:25:14.278Z,3.10
2022-12-04T00:27:41.171Z,3.20
2022-12-04T00:30:08.789Z,3.20
2022-12-04T00:32:35.999Z,3.20
2022-12-04T00:35:03.007Z,3.20
2022-12-04T00:37:29.977Z,3.20
2022-12-04T00:39:57.159Z,3.20
2022-12-04T00:42:24.269Z,3.20
2022-12-04T00:44:51.202Z,3.20
2022-12-04T00:47:18.161Z,3.20
2022-12-04T00:49:45.047Z,3.20
2022-12-04T00:52:13.899Z,3.20
2022-12-04T00:54:40.797Z,3.20
2022-12-04T00:57:08.015Z,3.20
2022-12-04T00:59:34.932Z,3.10
2022-12-04T01:02:01.799Z,3.10
2022-12-04T01:04:28.784Z,3.20
2022-12-04T01:06:58.064Z,3.20
2022-12-04T01:09:28.531Z,3.20
2022-12-04T01:11:55.394Z,3.20
2022-12-04T01:14:23.271Z,3.20
2022-12-04T01:16:50.233Z,3.20
2022-12-04T01:19:17.154Z,3.20
2022-12-04T01:21:43.998Z,3.20
2022-12-04T01:24:10.951Z,3.20
2022-12-04T01:26:37.850Z,3.20
2022-12-04T01:29:04.904Z,3.20
2022-12-04T01:31:31.972Z,3.20
2022-12-04T01:34:02.058Z,3.20
2022-12-04T01:36:29.103Z,3.20
2022-12-04T01:38:56.792Z,3.20
2022-12-04T01:41:27.889Z,3.20
2022-12-04T01:44:19.045Z,3.20
2022-12-04T01:46:50.818Z,3.10
2022-12-04T01:49:23.766Z,3.20
2022-12-04T01:51:56.249Z,3.10
2022-12-04T01:54:28.806Z,3.10
2022-12-04T01:57:01.858Z,3.10
2022-12-04T01:59:36.650Z,3.10
2022-12-04T02:02:16.048Z,3.20
2022-12-04T02:04:43.930Z,3.20
2022-12-04T02:07:11.275Z,3.20
2022-12-04T02:09:39.688Z,3.20
2022-12-04T02:12:36.965Z,3.10
2022-12-04T02:15:15.916Z,3.10
2022-12-04T02:17:51.679Z,3.10
2022-12-04T02:20:33.731Z,3.10
2022-12-04T02:23:18.799Z,3.00
2022-12-04T02:26:18.941Z,3.00
2022-12-04T02:29:04.897Z,3.00
2022-12-04T02:31:43.067Z,3.00
2022-12-04T02:34:25.781Z,3.00
2022-12-04T02:37:14.386Z,3.00
2022-12-04T02:39:48.679Z,3.00
2022-12-04T02:42:25.729Z,3.00
2022-12-04T02:45:08.405Z,2.90
2022-12-04T02:47:37.051Z,2.90
2022-12-04T02:50:09.425Z,2.90
2022-12-04T02:52:41.006Z,2.90
2022-12-04T02:55:24.679Z,2.90
2022-12-04T02:57:55.902Z,2.90
2022-12-04T03:00:22.846Z,2.90
2022-12-04T03:03:07.624Z,2.80
2022-12-04T03:05:41.281Z,2.90
2022-12-04T03:08:14.477Z,2.80
2022-12-04T03:10:48.895Z,2.80
2022-12-04T03:13:30.744Z,2.80
2022-12-04T03:16:07.122Z,2.80
2022-12-04T03:18:39.568Z,2.80
2022-12-04T03:21:12.164Z,2.70
2022-12-04T03:23:48.802Z,2.70
2022-12-04T03:26:15.582Z,2.70
2022-12-04T03:28:58.870Z,2.60
2022-12-04T03:32:01.305Z,2.60
2022-12-04T03:34:51.654Z,2.60
2022-12-04T03:37:24.186Z,2.60
2022-12-04T03:40:07.977Z,2.60
2022-12-04T03:42:48.054Z,2.70
2022-12-04T03:45:38.316Z,2.60
2022-12-04T03:48:23.396Z,2.60
2022-12-04T03:51:10.803Z,2.60
2022-12-04T03:53:42.935Z,2.60
2022-12-04T03:56:17.223Z,2.60
2022-12-04T03:58:49.019Z,2.50
2022-12-04T04:01:20.425Z,2.50
2022-12-04T04:03:51.976Z,2.50
2022-12-04T04:06:30.717Z,2.50
2022-12-04T04:09:02.659Z,2.50
2022-12-04T04:11:36.130Z,2.40
2022-12-04T04:14:26.362Z,2.40
2022-12-04T04:17:20.761Z,2.40
2022-12-04T04:20:12.677Z,2.30
2022-12-04T04:22:59.686Z,2.30
2022-12-04T04:25:28.430Z,2.30
2022-12-04T04:27:58.562Z,2.30
2022-12-04T04:30:27.516Z,2.30
2022-12-04T04:33:16.315Z,2.20
2022-12-04T04:36:17.848Z,2.20
2022-12-04T04:39:02.464Z,2.20
2022-12-04T04:41:48.266Z,2.30
2022-12-04T04:44:46.530Z,2.30
2022-12-04T04:47:20.277Z,2.20
2022-12-04T04:49:49.698Z,2.20
2022-12-04T04:52:20.309Z,2.20
2022-12-04T04:54:47.710Z,2.20
2022-12-04T04:57:25.167Z,2.20
2022-12-04T04:59:52.098Z,2.10
2022-12-04T05:02:19.046Z,2.20
2022-12-04T05:04:45.897Z,2.20
2022-12-04T05:07:12.786Z,2.10
2022-12-04T05:09:41.460Z,2.10
2022-12-04T05:12:09.196Z,2.10
2022-12-04T05:14:36.060Z,2.10
2022-12-04T05:17:12.169Z,2.10
2022-12-04T05:19:56.573Z,2.10
2022-12-04T05:22:28.785Z,2.10
2022-12-04T05:24:56.035Z,2.10
2022-12-04T05:27:24.762Z,2.10
2022-12-04T05:29:56.248Z,2.10
2022-12-04T05:32:24.947Z,2.10
2022-12-04T05:34:53.338Z,2.10
2022-12-04T05:37:20.758Z,2.00
2022-12-04T05:39:47.842Z,2.10
2022-12-04T05:42:15.065Z,2.00
2022-12-04T05:44:41.934Z,2.10
2022-12-04T05:47:10.015Z,2.10
2022-12-04T05:49:37.369Z,2.00
2022-12-04T05:52:05.679Z,2.00
2022-12-04T05:54:32.683Z,2.00
2022-12-04T05:56:59.820Z,2.00
2022-12-04T05:59:26.769Z,2.00
2022-12-04T06:01:53.915Z,2.00
2022-12-04T06:04:21.188Z,2.10
2022-12-04T06:06:48.224Z,2.00
2022-12-04T06:09:15.091Z,2.00
2022-12-04T06:11:43.182Z,2.00
2022-12-04T06:14:13.431Z,2.10
2022-12-04T06:16:43.467Z,2.10
2022-12-04T06:19:14.417Z,2.10
2022-12-04T06:21:42.905Z,2.10
2022-12-04T06:24:14.255Z,2.00
2022-12-04T06:27:03.851Z,2.10
2022-12-04T06:29:28.416Z,2.10
2022-12-04T06:31:55.324Z,2.10
2022-12-04T06:34:22.291Z,2.10
2022-12-04T06:36:49.230Z,2.10
2022-12-04T06:39:19.019Z,2.10
2022-12-04T06:41:47.642Z,2.10
2022-12-04T06:44:17.777Z,2.10
2022-12-04T06:46:47.256Z,2.10
2022-12-04T06:49:14.950Z,2.10
2022-12-04T06:51:42.004Z,2.10
2022-12-04T06:54:10.455Z,2.10
2022-12-04T06:56:37.438Z,2.00
2022-12-04T06:59:05.115Z,2.00
2022-12-04T07:01:34.410Z,2.00
2022-12-04T07:04:04.107Z,2.00
2022-12-04T07:06:37.757Z,2.00
2022-12-04T07:09:15.118Z,1.90
2022-12-04T07:11:43.251Z,1.90
2022-12-04T07:14:11.951Z,1.90
2022-12-04T07:16:41.414Z,1.90
2022-12-04T07:19:10.838Z,1.90
2022-12-04T07:21:37.797Z,1.90
2022-12-04T07:24:05.185Z,1.90
2022-12-04T07:26:32.295Z,1.90
2022-12-04T07:28:59.814Z,1.90
2022-12-04T07:31:28.535Z,1.90
2022-12-04T07:33:55.656Z,1.90
2022-12-04T07:36:23.546Z,2.00
2022-12-04T07:38:51.478Z,1.90
2022-12-04T07:41:19.297Z,2.00
2022-12-04T07:43:46.905Z,2.00
2022-12-04T07:46:20.463Z,2.00
2022-12-04T07:48:47.505Z,2.00
2022-12-04T07:51:20.201Z,2.00
2022-12-04T07:53:47.678Z,2.00
2022-12-04T07:56:15.531Z,2.00
2022-12-04T07:58:42.800Z,2.00
2022-12-04T08:01:12.526Z,2.00
2022-12-04T08:03:47.205Z,2.00
2022-12-04T08:06:15.389Z,2.00
2022-12-04T08:08:42.457Z,2.00
2022-12-04T08:11:14.140Z,1.90
2022-12-04T08:13:43.133Z,2.00
2022-12-04T08:16:11.367Z,2.00
2022-12-04T08:18:39.966Z,2.00
2022-12-04T08:21:15.871Z,2.00
2022-12-04T08:23:45.197Z,2.00
2022-12-04T08:26:15.331Z,2.10
2022-12-04T08:28:42.345Z,2.10
2022-12-04T08:31:13.856Z,2.20
2022-12-04T08:33:42.003Z,2.20
2022-12-04T08:36:11.430Z,2.20
2022-12-04T08:38:39.206Z,2.30
2022-12-04T08:41:12.674Z,2.30
2022-12-04T08:43:43.056Z,2.30
2022-12-04T08:46:18.001Z,2.30
2022-12-04T08:48:48.277Z,2.40
2022-12-04T08:51:21.032Z,2.40
2022-12-04T08:53:59.399Z,2.40
2022-12-04T08:56:31.032Z,2.50
2022-12-04T08:59:00.169Z,2.50
2022-12-04T09:01:30.679Z,2.50
2022-12-04T09:03:59.888Z,2.50
2022-12-04T09:06:28.867Z,2.60
2022-12-04T09:08:57.351Z,2.60
2022-12-04T09:11:28.184Z,2.60
2022-12-04T09:13:56.011Z,2.70
2022-12-04T09:16:24.688Z,2.70
2022-12-04T09:18:55.625Z,2.80
2022-12-04T09:21:24.755Z,2.80
2022-12-04T09:23:54.938Z,2.80
2022-12-04T09:26:28.476Z,2.80
2022-12-04T09:28:56.308Z,2.80
2022-12-04T09:31:26.973Z,2.80
2022-12-04T09:33:54.632Z,2.90
2022-12-04T09:36:21.990Z,2.90
2022-12-04T09:38:51.886Z,2.90
2022-12-04T09:41:44.385Z,3.00
2022-12-04T09:44:29.733Z,3.00
2022-12-04T09:47:15.055Z,3.00
2022-12-04T09:50:00.191Z,3.10
2022-12-04T09:52:40.328Z,3.10
2022-12-04T09:55:42.926Z,3.10
2022-12-04T09:58:46.909Z,3.20
2022-12-04T10:01:24.464Z,3.20
2022-12-04T10:03:57.728Z,3.20
2022-12-04T10:06:41.204Z,3.30
2022-12-04T10:09:19.753Z,3.30
2022-12-04T10:12:07.206Z,3.30
2022-12-04T10:15:15.839Z,3.40
2022-12-04T10:17:59.695Z,3.30
2022-12-04T10:20:58.019Z,3.30
2022-12-04T10:24:10.123Z,3.40
2022-12-04T10:26:45.157Z,3.40
2022-12-04T10:29:26.049Z,3.40
2022-12-04T10:31:55.871Z,3.40
2022-12-04T10:34:31.295Z,3.40
2022-12-04T10:37:11.618Z,3.40
2022-12-04T10:39:49.374Z,3.40
2022-12-04T10:42:36.089Z,3.40
2022-12-04T10:45:07.284Z,3.40
2022-12-04T10:47:35.406Z,3.40
2022-12-04T10:50:21.830Z,3.40
2022-12-04T10:52:49.425Z,3.50
2022-12-04T10:55:32.891Z,3.50
2022-12-04T10:58:03.106Z,3.60
2022-12-04T11:00:35.451Z,3.60
2022-12-04T11:03:09.338Z,3.60
2022-12-04T11:05:55.493Z,3.60
2022-12-04T11:08:36.690Z,3.70
2022-12-04T11:11:13.648Z,3.70
2022-12-04T11:13:42.621Z,3.70
2022-12-04T11:16:33.375Z,3.60
2022-12-04T11:19:19.988Z,3.60
2022-12-04T11:21:50.379Z,3.70
2022-12-04T11:24:24.289Z,3.70
2022-12-04T11:26:55.139Z,3.60
2022-12-04T11:29:31.321Z,3.70
2022-12-04T11:32:06.948Z,3.60
2022-12-04T11:34:40.767Z,3.70
2022-12-04T11:37:20.783Z,3.60
2022-12-04T11:39:51.075Z,3.60
2022-12-04T11:42:36.651Z,3.60
2022-12-04T11:45:20.960Z,3.60
2022-12-04T11:47:56.383Z,3.60
2022-12-04T11:50:53.121Z,3.60
2022-12-04T11:53:45.930Z,3.60
2022-12-04T11:56:35.109Z,3.70
2022-12-04T11:59:13.232Z,3.70
2022-12-04T12:02:05.033Z,3.70
2022-12-04T12:04:43.175Z,3.80
2022-12-04T12:07:37.968Z,3.80
2022-12-04T12:10:05.193Z,3.90
2022-12-04T12:13:13.962Z,3.90
2022-12-04T12:15:55.829Z,3.90
2022-12-04T12:18:42.189Z,3.90
2022-12-04T12:21:23.994Z,3.90
2022-12-04T12:24:30.432Z,3.80
2022-12-04T12:27:34.800Z,3.80
2022-12-04T12:30:10.634Z,3.90
2022-12-04T12:33:10.756Z,3.90
2022-12-04T12:35:54.310Z,3.90
2022-12-04T12:38:40.061Z,3.90
2022-12-04T12:41:18.183Z,3.80
2022-12-04T12:44:02.958Z,3.80
2022-12-04T12:46:44.166Z,3.80
2022-12-04T12:49:35.862Z,3.90
2022-12-04T12:52:30.840Z,3.80
2022-12-04T12:55:21.399Z,3.80
2022-12-04T12:58:00.179Z,3.70
2022-12-04T13:00:32.622Z,3.70
2022-12-04T13:03:33.665Z,3.70
2022-12-04T13:06:07.485Z,3.70
2022-12-04T13:09:02.001Z,3.70
2022-12-04T13:11:31.004Z,3.70
2022-12-04T13:14:03.320Z,3.70
2022-12-04T13:16:36.151Z,3.70
2022-12-04T13:19:09.237Z,3.70
2022-12-04T13:21:55.277Z,3.70
2022-12-04T13:24:41.225Z,3.70
2022-12-04T13:27:17.130Z,3.70
2022-12-04T13:30:09.082Z,3.70
2022-12-04T13:33:07.064Z,3.70
2022-12-04T13:36:02.917Z,3.70
2022-12-04T13:38:46.398Z,3.60
2022-12-04T13:41:20.939Z,3.60
2022-12-04T13:43:55.222Z,3.50
2022-12-04T13:46:40.298Z,3.50
2022-12-04T13:49:28.866Z,3.50
2022-12-04T13:52:00.531Z,3.50
2022-12-04T13:54:37.386Z,3.50
2022-12-04T13:57:16.491Z,3.50
2022-12-04T13:59:44.066Z,3.50
2022-12-04T14:02:35.353Z,3.50
2022-12-04T14:05:09.215Z,3.50
2022-12-04T14:07:42.786Z,3.50
2022-12-04T14:10:19.087Z,3.40
2022-12-04T14:13:00.358Z,3.40
2022-12-04T14:15:35.146Z,3.40
2022-12-04T14:18:05.130Z,3.40
2022-12-04T14:20:33.542Z,3.50
2022-12-04T14:23:22.739Z,3.40
2022-12-04T14:25:51.591Z,3.40
2022-12-04T14:28:25.063Z,3.40
2022-12-04T14:31:10.559Z,3.40
2022-12-04T14:33:52.630Z,3.40
2022-12-04T14:36:43.484Z,3.40
2022-12-04T14:39:34.796Z,3.40
2022-12-04T14:42:18.226Z,3.40
2022-12-04T14:44:51.571Z,3.40
2022-12-04T14:47:29.271Z,3.40
2022-12-04T14:50:32.523Z,3.40
2022-12-04T14:53:22.367Z,3.40
2022-12-04T14:56:30.043Z,3.30
2022-12-04T14:58:58.506Z,3.30
2022-12-04T15:01:37.297Z,3.30
2022-12-04T15:04:30.822Z,3.30
2022-12-04T15:07:01.234Z,3.30
2022-12-04T15:09:47.521Z,3.30
2022-12-04T15:12:33.896Z,3.30
2022-12-04T15:15:12.945Z,3.30
2022-12-04T15:17:41.973Z,3.20
2022-12-04T15:20:17.013Z,3.20
2022-12-04T15:22:46.002Z,3.20
2022-12-04T15:25:19.744Z,3.20
2022-12-04T15:27:49.375Z,3.20
2022-12-04T15:30:19.630Z,3.20
2022-12-04T15:32:49.814Z,3.20
2022-12-04T15:35:29.681Z,3.10
2022-12-04T15:38:00.590Z,3.10
2022-12-04T15:40:30.126Z,3.10
2022-12-04T15:43:17.069Z,3.10
2022-12-04T15:45:45.106Z,3.10
2022-12-04T15:48:25.056Z,3.00
2022-12-04T15:51:05.158Z,3.00
2022-12-04T15:53:37.284Z,3.00
2022-12-04T15:56:16.440Z,3.00
2022-12-04T15:58:58.164Z,3.00
2022-12-04T16:01:28.046Z,2.90
2022-12-04T16:03:56.281Z,2.90
2022-12-04T16:06:29.339Z,2.90
2022-12-04T16:09:12.591Z,2.80
2022-12-04T16:11:42.974Z,2.80
2022-12-04T16:14:12.945Z,2.80
2022-12-04T16:16:50.118Z,2.80
2022-12-04T16:19:31.605Z,2.80
2022-12-04T16:22:04.617Z,2.80
2022-12-04T16:24:34.684Z,2.80
2022-12-04T16:27:14.711Z,2.80
2022-12-04T16:29:41.713Z,2.80
2022-12-04T16:32:12.833Z,2.80
2022-12-04T16:34:42.934Z,2.80
2022-12-04T16:37:14.918Z,2.80
2022-12-04T16:39:41.914Z,2.70
2022-12-04T16:42:24.693Z,2.70
2022-12-04T16:44:53.484Z,2.70
2022-12-04T16:47:23.552Z,2.70
2022-12-04T16:49:53.641Z,2.70
2022-12-04T16:52:22.635Z,2.70
2022-12-04T16:54:50.605Z,2.70
2022-12-04T16:57:17.500Z,2.70
2022-12-04T16:59:44.467Z,2.70
2022-12-04T17:02:21.365Z,2.70
2022-12-04T17:04:51.534Z,2.70
2022-12-04T17:07:28.660Z,2.70
2022-12-04T17:09:58.781Z,2.70
2022-12-04T17:12:28.962Z,2.70
2022-12-04T17:14:59.170Z,2.70
2022-12-04T17:17:26.554Z,2.70
2022-12-04T17:19:56.520Z,2.70
2022-12-04T17:22:28.709Z,2.70
2022-12-04T17:24:59.202Z,2.70
2022-12-04T17:27:28.407Z,2.70
2022-12-04T17:29:56.128Z,2.70
2022-12-04T17:32:24.248Z,2.70
2022-12-04T17:34:52.530Z,2.70
2022-12-04T17:37:20.562Z,2.70
2022-12-04T17:39:50.583Z,2.70
2022-12-04T17:42:20.195Z,2.70
2022-12-04T17:44:50.334Z,2.70
2022-12-04T17:47:23.537Z,2.70
2022-12-04T17:49:53.531Z,2.70
2022-12-04T17:52:23.475Z,2.70
2022-12-04T17:54:51.529Z,2.70
2022-12-04T17:57:22.526Z,2.70
2022-12-04T17:59:51.873Z,2.70
2022-12-04T18:02:18.920Z,2.70
2022-12-04T18:04:48.898Z,2.70
2022-12-04T18:07:17.906Z,2.70
2022-12-04T18:09:47.940Z,2.70
2022-12-04T18:12:17.886Z,2.70
2022-12-04T18:14:45.892Z,2.80
2022-12-04T18:17:17.827Z,2.80
2022-12-04T18:19:45.814Z,2.80
2022-12-04T18:22:15.857Z,2.80
2022-12-04T18:24:45.965Z,2.80
2022-12-04T18:27:15.962Z,2.80
2022-12-04T18:29:44.998Z,2.80
2022-12-04T18:32:14.996Z,2.80
2022-12-04T18:34:42.039Z,2.80
2022-12-04T18:37:12.029Z,2.80
2022-12-04T18:39:42.088Z,2.80
2022-12-04T18:42:09.012Z,2.80
2022-12-04T18:44:36.972Z,2.80
2022-12-04T18:47:07.646Z,2.80
2022-12-04T18:49:38.018Z,2.80
2022-12-04T18:52:07.904Z,2.80
2022-12-04T18:54:37.910Z,2.80
2022-12-04T18:57:05.855Z,2.80
2022-12-04T18:59:33.851Z,2.80
2022-12-04T19:02:00.865Z,2.80
2022-12-04T19:04:31.886Z,2.80
2022-12-04T19:07:01.943Z,2.80
2022-12-04T19:10:09.009Z,2.80
2022-12-04T19:12:20.936Z,2.70
2022-12-04T19:14:54.125Z,2.70
2022-12-04T19:17:24.290Z,2.70
2022-12-04T19:19:51.282Z,2.70
2022-12-04T19:22:20.253Z,2.70
2022-12-04T19:24:50.302Z,2.70
2022-12-04T19:27:18.156Z,2.80
2022-12-04T19:29:47.930Z,2.80
2022-12-04T19:32:18.007Z,2.80
2022-12-04T19:34:49.351Z,2.80
2022-12-04T19:37:18.791Z,2.80
2022-12-04T19:39:48.305Z,2.80
2022-12-04T19:42:18.370Z,2.80
2022-12-04T19:44:49.674Z,2.90
2022-12-04T19:47:19.998Z,2.80
2022-12-04T19:49:48.229Z,2.90
2022-12-04T19:52:18.283Z,2.90
2022-12-04T19:54:48.333Z,2.90
2022-12-04T19:57:18.307Z,2.90
2022-12-04T19:59:46.988Z,2.90
2022-12-04T20:02:17.293Z,2.90
2022-12-04T20:04:46.325Z,2.90
2022-12-04T20:07:16.348Z,2.90
2022-12-04T20:09:52.164Z,2.90
2022-12-04T20:12:25.719Z,2.90
2022-12-04T20:14:55.619Z,2.90
2022-12-04T20:17:25.035Z,3.00
2022-12-04T20:19:54.218Z,2.90
2022-12-04T20:22:24.617Z,2.90
2022-12-04T20:24:51.591Z,2.90
2022-12-04T20:27:21.588Z,3.00
2022-12-04T20:29:50.611Z,3.00
2022-12-04T20:32:17.463Z,3.00
2022-12-04T20:34:47.514Z,3.00
2022-12-04T20:37:17.557Z,3.00
2022-12-04T20:39:47.579Z,3.00
2022-12-04T20:42:15.889Z,3.00
2022-12-04T20:44:44.803Z,3.00
2022-12-04T20:47:13.766Z,3.10
2022-12-04T20:49:43.752Z,3.00
2022-12-04T20:52:11.249Z,3.10
2022-12-04T20:54:41.551Z,3.10
2022-12-04T20:57:09.365Z,3.10
2022-12-04T20:59:36.363Z,3.10
2022-12-04T21:02:03.334Z,3.10
2022-12-04T21:04:30.187Z,3.10
2022-12-04T21:06:57.772Z,3.10
2022-12-04T21:09:25.149Z,3.10
2022-12-04T21:11:54.552Z,3.10
2022-12-04T21:14:47.024Z,3.20
2022-12-04T21:17:18.866Z,3.20
2022-12-04T21:19:47.458Z,3.10
2022-12-04T21:22:14.900Z,3.10
2022-12-04T21:24:42.347Z,3.10
2022-12-04T21:27:12.424Z,3.20
2022-12-04T21:29:43.751Z,3.20
2022-12-04T21:32:10.595Z,3.20
2022-12-04T21:34:37.555Z,3.20
2022-12-04T21:37:04.502Z,3.20
2022-12-04T21:39:31.443Z,3.20
2022-12-04T21:42:17.042Z,3.30
2022-12-04T21:44:44.042Z,3.30
2022-12-04T21:47:10.949Z,3.30
2022-12-04T21:49:37.912Z,3.30
2022-12-04T21:52:04.870Z,3.30
2022-12-04T21:54:31.831Z,3.30
2022-12-04T21:56:58.881Z,3.30
2022-12-04T21:59:26.470Z,3.30
2022-12-04T22:01:54.736Z,3.30
2022-12-04T22:04:22.690Z,3.30
2022-12-04T22:06:49.972Z,3.30
2022-12-04T22:09:17.088Z,3.30
2022-12-04T22:11:45.768Z,3.30
2022-12-04T22:14:13.732Z,3.30
2022-12-04T22:16:43.469Z,3.30
2022-12-04T22:19:12.133Z,3.30
2022-12-04T22:21:39.841Z,3.30
2022-12-04T22:24:07.377Z,3.30
2022-12-04T22:26:34.311Z,3.30
2022-12-04T22:29:01.190Z,3.30
2022-12-04T22:31:30.151Z,3.30
2022-12-04T22:33:59.503Z,3.30
2022-12-04T22:36:31.727Z,3.30
2022-12-04T22:39:16.217Z,3.40
2022-12-04T22:41:43.218Z,3.40
2022-12-04T22:44:11.153Z,3.40
2022-12-04T22:46:41.327Z,3.40
2022-12-04T22:49:10.502Z,3.40
2022-12-04T22:51:38.355Z,3.40
2022-12-04T22:54:08.079Z,3.40
2022-12-04T22:56:36.052Z,3.30
2022-12-04T22:59:13.415Z,3.30
2022-12-04T23:01:42.440Z,3.40
2022-12-04T23:04:10.315Z,3.40
2022-12-04T23:06:40.403Z,3.40
2022-12-04T23:09:13.001Z,3.40
2022-12-04T23:11:43.122Z,3.40
2022-12-04T23:14:15.045Z,3.40
2022-12-04T23:16:45.126Z,3.40
2022-12-04T23:19:18.311Z,3.40
2022-12-04T23:21:53.571Z,3.40
2022-12-04T23:24:25.903Z,3.40
2022-12-04T23:26:58.876Z,3.50
2022-12-04T23:29:52.295Z,3.40
2022-12-04T23:32:18.973Z,3.50
2022-12-04T23:34:47.958Z,3.50
2022-12-04T23:37:20.891Z,3.50
2022-12-04T23:39:48.961Z,3.50
2022-12-04T23:42:19.021Z,3.50
2022-12-04T23:44:48.982Z,3.50
2022-12-04T23:47:19.283Z,3.50
2022-12-04T23:49:46.500Z,3.50
2022-12-04T23:52:14.477Z,3.50
2022-12-04T23:54:42.469Z,3.60
2022-12-04T23:57:12.496Z,3.50
2022-12-04T23:59:45.662Z,3.60
